createdAt,value
2018-08-11T00:00:41.835Z,19.60
2018-08-11T00:03:12.009Z,19.60
2018-08-11T00:05:43.064Z,19.60
2018-08-11T00:08:13.167Z,19.60
2018-08-11T00:10:43.283Z,19.60
2018-08-11T00:13:13.412Z,19.60
2018-08-11T00:15:43.600Z,19.60
2018-08-11T00:18:13.754Z,19.60
2018-08-11T00:20:43.939Z,19.60
2018-08-11T00:23:14.017Z,19.60
2018-08-11T00:25:44.230Z,19.60
2018-08-11T00:28:14.423Z,19.60
2018-08-11T00:30:44.716Z,19.60
2018-08-11T00:33:16.458Z,19.60
2018-08-11T00:35:46.528Z,19.60
2018-08-11T00:38:16.649Z,19.60
2018-08-11T00:40:47.873Z,19.70
2018-08-11T00:43:18.506Z,19.70
2018-08-11T00:45:48.708Z,19.70
2018-08-11T00:48:18.854Z,19.70
2018-08-11T00:50:50.129Z,19.70
2018-08-11T00:53:20.415Z,19.70
2018-08-11T00:55:50.662Z,19.60
2018-08-11T00:58:20.804Z,19.60
2018-08-11T01:00:50.996Z,19.50
2018-08-11T01:03:21.118Z,19.40
2018-08-11T01:05:51.264Z,19.40
2018-08-11T01:08:21.498Z,19.30
2018-08-11T01:10:58.010Z,19.30
2018-08-11T01:13:28.155Z,19.20
2018-08-11T01:15:58.296Z,19.20
2018-08-11T01:18:28.479Z,19.10
2018-08-11T01:20:58.626Z,19.00
2018-08-11T01:23:28.716Z,19.00
2018-08-11T01:25:58.888Z,18.90
2018-08-11T01:28:28.957Z,18.80
2018-08-11T01:30:59.169Z,18.70
2018-08-11T01:33:29.354Z,18.60
2018-08-11T01:35:59.438Z,18.60
2018-08-11T01:38:29.555Z,18.50
2018-08-11T01:40:59.662Z,18.50
2018-08-11T01:43:29.856Z,18.40
2018-08-11T01:46:00.084Z,18.30
2018-08-11T01:48:30.164Z,18.30
2018-08-11T01:51:00.344Z,18.30
2018-08-11T01:53:30.462Z,18.30
2018-08-11T01:56:00.617Z,18.20
2018-08-11T01:58:31.223Z,18.20
2018-08-11T02:01:01.346Z,18.20
2018-08-11T02:03:31.500Z,18.20
2018-08-11T02:06:01.715Z,18.10
2018-08-11T02:08:31.987Z,18.10
2018-08-11T02:11:02.148Z,18.10
2018-08-11T02:13:32.255Z,18.00
2018-08-11T02:16:02.429Z,18.00
2018-08-11T02:18:32.672Z,18.00
2018-08-11T02:21:02.754Z,18.00
2018-08-11T02:23:32.905Z,17.90
2018-08-11T02:26:03.110Z,17.90
2018-08-11T02:28:33.210Z,17.90
2018-08-11T02:31:03.411Z,17.80
2018-08-11T02:33:40.127Z,17.80
2018-08-11T02:36:10.242Z,17.70
2018-08-11T02:38:40.473Z,17.70
2018-08-11T02:41:10.569Z,17.70
2018-08-11T02:43:40.734Z,17.70
2018-08-11T02:46:10.900Z,17.60
2018-08-11T02:48:41.134Z,17.60
2018-08-11T02:51:11.213Z,17.60
2018-08-11T02:53:41.293Z,17.60
2018-08-11T02:56:11.425Z,17.50
2018-08-11T02:58:41.621Z,17.50
2018-08-11T03:01:11.777Z,17.40
2018-08-11T03:03:41.934Z,17.40
2018-08-11T03:06:12.052Z,17.30
2018-08-11T03:08:42.128Z,17.30
2018-08-11T03:11:12.190Z,17.20
2018-08-11T03:13:42.388Z,17.20
2018-08-11T03:16:12.489Z,17.20
2018-08-11T03:18:42.621Z,17.10
2018-08-11T03:21:19.370Z,17.10
2018-08-11T03:23:49.524Z,17.00
2018-08-11T03:26:19.706Z,17.00
2018-08-11T03:28:49.787Z,16.90
2018-08-11T03:31:19.923Z,16.90
2018-08-11T03:33:49.994Z,16.90
2018-08-11T03:36:20.092Z,16.80
2018-08-11T03:38:50.154Z,16.80
2018-08-11T03:41:20.271Z,16.80
2018-08-11T03:43:50.378Z,16.70
2018-08-11T03:46:20.496Z,16.70
2018-08-11T03:48:50.579Z,16.70
2018-08-11T03:51:20.617Z,16.60
2018-08-11T03:53:50.694Z,16.60
2018-08-11T03:56:20.729Z,16.60
2018-08-11T03:58:50.929Z,16.60
2018-08-11T04:01:21.056Z,16.60
2018-08-11T04:03:51.193Z,16.60
2018-08-11T04:06:21.411Z,16.50
2018-08-11T04:08:51.509Z,16.50
2018-08-11T04:11:21.619Z,16.50
2018-08-11T04:13:51.668Z,16.40
2018-08-11T04:16:21.873Z,16.40
2018-08-11T04:18:52.032Z,16.40
2018-08-11T04:21:22.141Z,16.40
2018-08-11T04:23:52.279Z,16.40
2018-08-11T04:26:22.487Z,16.40
2018-08-11T04:28:52.559Z,16.30
2018-08-11T04:31:22.793Z,16.30
2018-08-11T04:33:53.319Z,16.30
2018-08-11T04:36:23.544Z,16.20
2018-08-11T04:38:53.689Z,16.20
2018-08-11T04:41:23.926Z,16.20
2018-08-11T04:43:54.074Z,16.20
2018-08-11T04:46:24.156Z,16.20
2018-08-11T04:48:54.480Z,16.20
2018-08-11T04:51:24.590Z,16.20
2018-08-11T04:53:54.712Z,16.10
2018-08-11T04:56:24.824Z,16.10
2018-08-11T04:58:55.017Z,16.10
2018-08-11T05:01:25.299Z,16.00
2018-08-11T05:03:55.352Z,16.00
2018-08-11T05:06:25.485Z,16.00
2018-08-11T05:08:55.618Z,16.00
2018-08-11T05:11:25.886Z,16.00
2018-08-11T05:13:56.072Z,16.00
2018-08-11T05:16:26.272Z,16.00
2018-08-11T05:18:56.396Z,16.00
2018-08-11T05:21:26.512Z,16.10
2018-08-11T05:23:56.776Z,16.10
2018-08-11T05:26:26.840Z,16.10
2018-08-11T05:28:56.961Z,16.10
2018-08-11T05:31:27.019Z,16.10
2018-08-11T05:33:57.172Z,16.10
2018-08-11T05:36:27.340Z,16.10
2018-08-11T05:38:57.428Z,16.10
2018-08-11T05:41:27.555Z,16.10
2018-08-11T05:44:00.623Z,16.10
2018-08-11T05:46:30.718Z,16.10
2018-08-11T05:49:00.830Z,16.10
2018-08-11T05:51:30.975Z,16.10
2018-08-11T05:54:01.088Z,16.10
2018-08-11T05:56:31.209Z,16.10
2018-08-11T05:59:01.377Z,16.10
2018-08-11T06:01:31.495Z,16.10
2018-08-11T06:04:01.691Z,16.10
2018-08-11T06:06:31.842Z,16.10
2018-08-11T06:09:01.923Z,16.10
2018-08-11T06:11:32.050Z,16.10
2018-08-11T06:14:02.173Z,16.20
2018-08-11T06:16:32.298Z,16.20
2018-08-11T06:19:02.437Z,16.20
2018-08-11T06:21:32.579Z,16.20
2018-08-11T06:24:02.733Z,16.20
2018-08-11T06:26:32.929Z,16.20
2018-08-11T06:29:03.132Z,16.20
2018-08-11T06:31:33.300Z,16.20
2018-08-11T06:34:03.432Z,16.20
2018-08-11T06:36:33.425Z,16.30
2018-08-11T06:39:03.681Z,16.30
2018-08-11T06:41:33.850Z,16.30
2018-08-11T06:44:04.032Z,16.30
2018-08-11T06:46:34.200Z,16.30
2018-08-11T06:49:04.460Z,16.40
2018-08-11T06:51:34.643Z,16.50
2018-08-11T06:54:04.815Z,16.50
2018-08-11T06:56:34.945Z,16.60
2018-08-11T06:59:05.138Z,16.60
2018-08-11T07:01:35.269Z,16.70
2018-08-11T07:04:05.550Z,16.80
2018-08-11T07:06:35.890Z,16.90
2018-08-11T07:09:10.334Z,17.00
2018-08-11T07:11:40.935Z,17.10
2018-08-11T07:14:11.024Z,17.20
2018-08-11T07:16:41.116Z,17.30
2018-08-11T07:19:11.278Z,17.40
2018-08-11T07:21:41.394Z,17.50
2018-08-11T07:24:11.623Z,17.60
2018-08-11T07:26:41.720Z,17.70
2018-08-11T07:29:11.824Z,17.90
2018-08-11T07:31:41.999Z,18.00
2018-08-11T07:34:12.068Z,18.10
2018-08-11T07:36:42.269Z,18.30
2018-08-11T07:39:12.402Z,18.40
2018-08-11T07:41:42.575Z,18.50
2018-08-11T07:44:12.709Z,18.60
2018-08-11T07:46:43.209Z,18.80
2018-08-11T07:49:13.374Z,18.90
2018-08-11T07:51:43.506Z,19.00
2018-08-11T07:54:13.643Z,19.10
2018-08-11T07:56:43.717Z,19.30
2018-08-11T07:59:14.074Z,19.30
2018-08-11T08:01:44.359Z,19.50
2018-08-11T08:04:14.543Z,19.60
2018-08-11T08:06:44.584Z,19.70
2018-08-11T08:09:15.057Z,19.90
2018-08-11T08:11:45.166Z,20.00
2018-08-11T08:14:15.278Z,20.00
2018-08-11T08:16:45.423Z,20.10
2018-08-11T08:19:15.655Z,20.10
2018-08-11T08:21:45.761Z,20.20
2018-08-11T08:24:15.936Z,20.30
2018-08-11T08:26:46.153Z,20.40
2018-08-11T08:29:16.278Z,20.40
2018-08-11T08:31:46.449Z,20.50
2018-08-11T08:34:16.665Z,20.60
2018-08-11T08:36:46.821Z,20.60
2018-08-11T08:39:17.016Z,20.60
2018-08-11T08:41:47.212Z,20.60
2018-08-11T08:44:17.317Z,20.60
2018-08-11T08:46:47.632Z,20.50
2018-08-11T08:49:17.773Z,20.50
2018-08-11T08:51:47.900Z,20.60
2018-08-11T08:54:18.044Z,20.60
2018-08-11T08:56:48.168Z,20.60
2018-08-11T08:59:18.405Z,20.70
2018-08-11T09:01:48.548Z,20.70
2018-08-11T09:04:18.684Z,20.70
2018-08-11T09:06:48.818Z,20.80
2018-08-11T09:09:18.972Z,20.80
2018-08-11T09:11:49.189Z,20.90
2018-08-11T09:14:19.310Z,20.90
2018-08-11T09:16:49.410Z,20.90
2018-08-11T09:19:19.502Z,20.90
2018-08-11T09:21:49.725Z,20.90
2018-08-11T09:24:19.881Z,21.00
2018-08-11T09:26:50.080Z,21.00
2018-08-11T09:29:20.411Z,21.10
2018-08-11T09:31:50.507Z,21.10
2018-08-11T09:34:21.268Z,21.20
2018-08-11T09:36:52.725Z,21.30
2018-08-11T09:39:24.127Z,21.40
2018-08-11T09:41:54.325Z,21.40
2018-08-11T09:44:24.473Z,21.50
2018-08-11T09:46:55.601Z,21.60
2018-08-11T09:49:26.377Z,21.70
2018-08-11T09:51:56.443Z,21.80
2018-08-11T09:54:26.521Z,21.80
2018-08-11T09:56:56.617Z,21.90
2018-08-11T09:59:26.860Z,22.00
2018-08-11T10:02:02.068Z,22.10
2018-08-11T10:04:32.246Z,22.20
2018-08-11T10:07:02.455Z,22.20
2018-08-11T10:09:32.576Z,22.20
2018-08-11T10:12:02.929Z,22.20
2018-08-11T10:14:33.072Z,22.20
2018-08-11T10:17:03.172Z,22.30
2018-08-11T10:19:33.699Z,22.30
2018-08-11T10:22:03.893Z,22.30
2018-08-11T10:24:34.203Z,22.30
2018-08-11T10:27:04.427Z,22.40
2018-08-11T10:29:34.662Z,22.40
2018-08-11T10:32:11.377Z,22.40
2018-08-11T10:34:41.500Z,22.40
2018-08-11T10:37:11.767Z,22.40
2018-08-11T10:39:41.951Z,22.40
2018-08-11T10:42:12.166Z,22.40
2018-08-11T10:44:42.315Z,22.40
2018-08-11T10:47:12.488Z,22.40
2018-08-11T10:49:43.211Z,22.50
2018-08-11T10:59:02.745Z,22.60
2018-08-11T11:01:33.114Z,22.70
2018-08-11T11:04:03.621Z,22.80
2018-08-11T11:06:34.020Z,22.90
2018-08-11T11:09:04.945Z,22.90
2018-08-11T11:11:35.137Z,22.90
2018-08-11T11:14:05.327Z,22.90
2018-08-11T11:16:36.048Z,23.00
2018-08-11T11:19:06.520Z,23.00
2018-08-11T11:21:36.711Z,23.00
2018-08-11T11:24:06.989Z,23.00
2018-08-11T11:26:43.691Z,23.00
2018-08-11T11:29:13.808Z,23.00
2018-08-11T11:31:43.949Z,22.90
2018-08-11T11:34:14.308Z,22.90
2018-08-11T11:36:44.513Z,22.80
2018-08-11T11:39:14.751Z,22.80
2018-08-11T11:41:44.891Z,22.80
2018-08-11T11:44:15.167Z,22.80
2018-08-11T11:46:45.375Z,22.80
2018-08-11T11:49:15.539Z,22.90
2018-08-11T11:51:45.704Z,23.00
2018-08-11T11:54:16.260Z,23.00
2018-08-11T11:56:46.384Z,23.10
2018-08-11T11:59:16.526Z,23.20
2018-08-11T12:01:46.718Z,23.30
2018-08-11T12:04:16.978Z,23.30
2018-08-11T12:06:47.157Z,23.40
2018-08-11T12:09:17.295Z,23.50
2018-08-11T12:11:47.433Z,23.60
2018-08-11T12:14:17.577Z,23.70
2018-08-11T12:16:47.695Z,23.80
2018-08-11T12:19:17.880Z,23.90
2018-08-11T12:21:48.020Z,24.00
2018-08-11T12:24:18.192Z,24.10
2018-08-11T12:26:48.377Z,24.20
2018-08-11T12:29:18.534Z,24.30
2018-08-11T12:31:48.693Z,24.40
2018-08-11T12:34:18.829Z,24.50
2018-08-11T12:36:48.937Z,24.50
2018-08-11T12:39:19.113Z,24.60
2018-08-11T12:41:49.214Z,24.60
2018-08-11T12:44:19.460Z,24.70
2018-08-11T12:46:49.681Z,24.70
2018-08-11T12:49:19.814Z,24.80
2018-08-11T12:51:49.939Z,24.80
2018-08-11T12:54:20.056Z,24.90
2018-08-11T12:56:50.197Z,24.90
2018-08-11T12:59:20.397Z,24.90
2018-08-11T13:01:50.504Z,25.00
2018-08-11T13:04:20.737Z,25.00
2018-08-11T13:06:50.912Z,25.10
2018-08-11T13:09:21.124Z,25.10
2018-08-11T13:11:51.425Z,25.00
2018-08-11T13:14:21.514Z,25.00
2018-08-11T13:16:51.654Z,25.10
2018-08-11T13:19:22.151Z,25.10
2018-08-11T13:21:52.410Z,25.00
2018-08-11T13:24:22.572Z,25.00
2018-08-11T13:26:52.773Z,24.90
2018-08-11T13:29:23.085Z,25.00
2018-08-11T13:31:53.187Z,25.00
2018-08-11T13:34:30.082Z,25.10
2018-08-11T13:37:00.207Z,25.10
2018-08-11T13:39:30.397Z,25.10
2018-08-11T13:42:01.476Z,25.10
2018-08-11T13:44:31.651Z,25.10
2018-08-11T13:47:01.866Z,25.10
2018-08-11T13:49:32.007Z,25.20
2018-08-11T13:52:02.204Z,25.20
2018-08-11T13:54:32.456Z,25.10
2018-08-11T13:57:02.595Z,25.10
2018-08-11T13:59:32.724Z,25.10
2018-08-11T14:02:03.084Z,25.10
2018-08-11T14:04:33.388Z,25.00
2018-08-11T14:07:04.479Z,25.00
2018-08-11T14:09:34.717Z,25.00
2018-08-11T14:12:05.201Z,25.00
2018-08-11T14:14:35.392Z,24.90
2018-08-11T14:17:05.672Z,24.80
2018-08-11T14:19:35.815Z,24.80
2018-08-11T14:22:05.945Z,24.80
2018-08-11T14:24:36.120Z,24.80
2018-08-11T14:27:06.437Z,24.80
2018-08-11T14:29:36.548Z,24.80
2018-08-11T14:32:07.055Z,24.90
2018-08-11T14:34:37.277Z,24.90
2018-08-11T14:37:07.508Z,24.90
2018-08-11T14:39:37.560Z,24.90
2018-08-11T14:42:08.821Z,24.90
2018-08-11T14:44:39.140Z,24.90
2018-08-11T14:47:09.655Z,24.90
2018-08-11T14:49:39.854Z,25.00
2018-08-11T14:52:10.023Z,25.00
2018-08-11T14:54:40.149Z,25.00
2018-08-11T14:57:11.769Z,25.00
2018-08-11T14:59:41.923Z,25.10
2018-08-11T15:02:12.084Z,25.10
2018-08-11T15:04:42.242Z,25.10
2018-08-11T15:07:12.463Z,25.20
2018-08-11T15:09:42.554Z,25.20
2018-08-11T15:12:12.768Z,25.20
2018-08-11T15:14:42.906Z,25.20
2018-08-11T15:17:13.174Z,25.20
2018-08-11T15:19:43.325Z,25.10
2018-08-11T15:22:13.549Z,25.00
2018-08-11T15:24:45.652Z,25.00
2018-08-11T15:27:15.880Z,25.00
2018-08-11T15:29:46.063Z,25.00
2018-08-11T15:32:16.317Z,25.00
2018-08-11T15:34:46.514Z,25.00
2018-08-11T15:37:16.809Z,25.00
2018-08-11T15:39:48.021Z,25.10
2018-08-11T15:42:19.063Z,25.00
2018-08-11T15:44:49.231Z,25.00
2018-08-11T15:47:19.373Z,24.90
2018-08-11T15:49:49.555Z,24.90
2018-08-11T15:52:19.676Z,24.80
2018-08-11T15:54:49.892Z,24.90
2018-08-11T15:57:20.123Z,25.00
2018-08-11T15:59:50.295Z,25.00
2018-08-11T16:02:20.495Z,25.10
2018-08-11T16:04:50.635Z,25.10
2018-08-11T16:07:20.796Z,25.20
2018-08-11T16:09:51.698Z,25.30
2018-08-11T16:12:22.263Z,25.30
2018-08-11T16:14:52.443Z,25.30
2018-08-11T16:17:22.607Z,25.40
2018-08-11T16:19:52.756Z,25.50
2018-08-11T16:22:23.043Z,25.50
2018-08-11T16:24:53.168Z,25.50
2018-08-11T16:27:23.486Z,25.50
2018-08-11T16:29:53.635Z,25.60
2018-08-11T16:32:23.856Z,25.60
2018-08-11T16:34:54.001Z,25.60
2018-08-11T16:37:24.299Z,25.60
2018-08-11T16:39:54.573Z,25.60
2018-08-11T16:42:24.836Z,25.60
2018-08-11T16:44:54.952Z,25.60
2018-08-11T16:47:25.105Z,25.60
2018-08-11T16:49:55.405Z,25.60
2018-08-11T16:52:25.561Z,25.70
2018-08-11T16:54:55.775Z,25.70
2018-08-11T16:57:26.234Z,25.80
2018-08-11T16:59:56.561Z,25.60
2018-08-11T17:02:26.920Z,25.50
2018-08-11T17:04:57.204Z,25.30
2018-08-11T17:07:27.415Z,25.10
2018-08-11T17:09:57.783Z,24.90
2018-08-11T17:12:28.277Z,24.80
2018-08-11T17:14:58.734Z,24.70
2018-08-11T17:17:29.180Z,24.60
2018-08-11T17:19:59.594Z,24.50
2018-08-11T17:22:30.297Z,24.40
2018-08-11T17:25:00.800Z,24.10
2018-08-11T17:27:31.246Z,24.00
2018-08-11T17:30:01.631Z,23.80
2018-08-11T17:32:32.119Z,23.60
2018-08-11T17:35:03.638Z,23.30
2018-08-11T17:37:34.938Z,23.00
2018-08-11T17:40:06.700Z,22.70
2018-08-11T17:42:37.910Z,22.50
2018-08-11T17:45:08.454Z,22.40
2018-08-11T17:50:43.245Z,22.20
2018-08-11T17:53:13.732Z,22.10
2018-08-11T17:55:44.032Z,22.10
2018-08-11T17:58:14.326Z,22.10
2018-08-11T18:00:44.568Z,22.00
2018-08-11T18:03:15.005Z,22.00
2018-08-11T18:05:45.405Z,22.00
2018-08-11T18:08:15.712Z,22.00
2018-08-11T18:10:46.005Z,22.10
2018-08-11T18:13:16.353Z,22.00
2018-08-11T18:15:46.679Z,22.00
2018-08-11T18:18:17.245Z,22.00
2018-08-11T18:20:48.044Z,21.90
2018-08-11T18:23:18.392Z,21.90
2018-08-11T18:25:48.662Z,21.80
2018-08-11T18:28:18.923Z,21.80
2018-08-11T18:30:49.045Z,21.80
2018-08-11T18:33:19.185Z,21.80
2018-08-11T18:35:49.398Z,21.90
2018-08-11T18:38:19.522Z,21.90
2018-08-11T18:40:49.747Z,22.00
2018-08-11T18:43:19.969Z,22.00
2018-08-11T18:45:50.073Z,22.10
2018-08-11T18:48:20.215Z,22.20
2018-08-11T18:50:50.376Z,22.20
2018-08-11T18:53:20.528Z,22.20
2018-08-11T18:55:50.764Z,22.20
2018-08-11T18:58:20.948Z,22.30
2018-08-11T19:00:51.229Z,22.20
2018-08-11T19:03:21.344Z,22.20
2018-08-11T19:05:51.588Z,22.20
2018-08-11T19:08:21.864Z,22.20
2018-08-11T19:11:11.457Z,22.10
2018-08-11T19:13:42.442Z,22.00
2018-08-11T19:16:12.952Z,21.90
2018-08-11T19:18:43.190Z,21.80
2018-08-11T19:21:13.574Z,21.80
2018-08-11T19:23:43.758Z,21.70
2018-08-11T19:26:13.849Z,21.70
2018-08-11T19:28:44.475Z,21.60
2018-08-11T19:31:14.722Z,21.60
2018-08-11T19:33:44.969Z,21.50
2018-08-11T19:36:15.193Z,21.50
2018-08-11T19:38:45.392Z,21.50
2018-08-11T19:41:15.617Z,21.40
2018-08-11T19:43:46.977Z,21.40
2018-08-11T19:46:17.314Z,21.40
2018-08-11T19:48:47.900Z,21.30
2018-08-11T19:51:18.079Z,21.30
2018-08-11T19:53:48.411Z,21.30
2018-08-11T19:56:18.572Z,21.20
2018-08-11T19:58:48.733Z,21.10
2018-08-11T20:01:18.960Z,21.10
2018-08-11T20:03:49.156Z,21.10
2018-08-11T20:06:19.324Z,21.00
2018-08-11T20:08:49.591Z,21.00
2018-08-11T20:11:19.724Z,20.90
2018-08-11T20:13:49.857Z,20.90
2018-08-11T20:16:19.977Z,20.80
2018-08-11T20:18:52.095Z,20.80
2018-08-11T20:21:22.359Z,20.70
2018-08-11T20:23:54.736Z,20.70
2018-08-11T20:26:25.214Z,20.60
2018-08-11T20:29:01.798Z,20.60
2018-08-11T20:31:33.782Z,20.50
2018-08-11T20:34:11.819Z,20.50
2018-08-11T20:37:01.691Z,20.40
2018-08-11T20:39:33.741Z,20.40
2018-08-11T20:42:20.561Z,20.30
2018-08-11T20:44:51.740Z,20.30
2018-08-11T20:47:23.581Z,20.20
2018-08-11T20:50:00.869Z,20.10
2018-08-11T20:52:38.919Z,20.10
2018-08-11T20:55:09.875Z,20.10
2018-08-11T20:57:40.433Z,20.00
2018-08-11T21:00:18.342Z,19.90
2018-08-11T21:02:49.613Z,19.90
2018-08-11T21:05:20.107Z,19.80
2018-08-11T21:07:50.531Z,19.70
2018-08-11T21:10:21.079Z,19.70
2018-08-11T21:12:51.719Z,19.60
2018-08-11T21:15:22.121Z,19.60
2018-08-11T21:17:52.574Z,19.60
2018-08-11T21:20:23.108Z,19.50
2018-08-11T21:22:53.375Z,19.40
2018-08-11T21:25:24.980Z,19.40
2018-08-11T21:27:55.387Z,19.30
2018-08-11T21:30:25.872Z,19.30
2018-08-11T21:32:56.531Z,19.20
2018-08-11T21:35:27.031Z,19.10
2018-08-11T21:37:57.723Z,19.10
2018-08-11T21:40:28.010Z,19.00
2018-08-11T21:42:58.376Z,19.00
2018-08-11T21:45:28.850Z,18.90
2018-08-11T21:47:59.297Z,18.80
2018-08-11T21:50:29.591Z,18.80
2018-08-11T21:52:59.870Z,18.70
2018-08-11T21:55:45.826Z,18.60
2018-08-11T21:58:16.004Z,18.60
2018-08-11T22:00:51.309Z,18.40
2018-08-11T22:04:06.423Z,18.40
2018-08-11T22:06:37.986Z,18.30
2018-08-11T22:09:14.004Z,18.30
2018-08-11T22:11:44.384Z,18.20
2018-08-11T22:14:14.681Z,18.20
2018-08-11T22:16:44.900Z,18.10
2018-08-11T22:19:15.148Z,18.10
2018-08-11T22:21:45.402Z,18.00
2018-08-11T22:24:15.600Z,18.00
2018-08-11T22:26:45.979Z,18.00
2018-08-11T22:29:16.374Z,17.90
2018-08-11T22:31:46.647Z,17.80
2018-08-11T22:34:16.978Z,17.80
2018-08-11T22:36:47.269Z,17.80
2018-08-11T22:39:17.597Z,17.70
2018-08-11T22:41:47.927Z,17.70
2018-08-11T22:44:18.195Z,17.60
2018-08-11T22:46:48.440Z,17.60
2018-08-11T22:49:18.531Z,17.60
2018-08-11T22:51:48.893Z,17.50
2018-08-11T22:54:19.003Z,17.50
2018-08-11T22:56:49.182Z,17.50
2018-08-11T22:59:19.308Z,17.40
2018-08-11T23:01:49.625Z,17.40
2018-08-11T23:04:19.924Z,17.30
2018-08-11T23:06:50.153Z,17.30
2018-08-11T23:09:20.373Z,17.30
2018-08-11T23:11:50.556Z,17.20
2018-08-11T23:14:20.811Z,17.20
2018-08-11T23:16:50.981Z,17.20
2018-08-11T23:19:21.221Z,17.10
2018-08-11T23:21:51.513Z,17.10
2018-08-11T23:24:23.042Z,17.00
2018-08-11T23:26:53.817Z,17.00
2018-08-11T23:29:24.240Z,17.00
2018-08-11T23:31:54.501Z,16.90
2018-08-11T23:34:24.677Z,16.90
2018-08-11T23:36:54.822Z,16.80
2018-08-11T23:39:25.007Z,16.80
2018-08-11T23:41:55.126Z,16.80
2018-08-11T23:44:25.318Z,16.70
2018-08-11T23:46:55.504Z,16.70
2018-08-11T23:49:25.721Z,16.70
2018-08-11T23:51:55.959Z,16.70
2018-08-11T23:54:26.784Z,16.70
2018-08-11T23:56:57.780Z,16.70
2018-08-11T23:59:27.930Z,16.60
